createdAt,value
2017-10-19T00:00:10.501Z,88.85
2017-10-19T00:00:36.641Z,88.85
2017-10-19T00:01:02.816Z,88.85
2017-10-19T00:01:28.941Z,88.95
2017-10-19T00:01:55.060Z,88.85
2017-10-19T00:02:21.209Z,89.04
2017-10-19T00:02:47.326Z,89.04
2017-10-19T00:03:13.454Z,88.66
2017-10-19T00:03:39.583Z,88.66
2017-10-19T00:04:05.707Z,88.85
2017-10-19T00:04:31.887Z,88.95
2017-10-19T00:04:58.017Z,89.04
2017-10-19T00:05:24.145Z,88.66
2017-10-19T00:05:50.290Z,88.85
2017-10-19T00:06:16.642Z,89.23
2017-10-19T00:06:42.760Z,89.04
2017-10-19T00:07:08.898Z,88.76
2017-10-19T00:07:35.019Z,88.66
2017-10-19T00:08:01.147Z,89.23
2017-10-19T00:08:27.280Z,88.76
2017-10-19T00:08:53.415Z,88.85
2017-10-19T00:09:19.541Z,88.66
2017-10-19T00:09:45.653Z,89.04
2017-10-19T00:10:11.779Z,88.66
2017-10-19T00:10:37.925Z,88.85
2017-10-19T00:11:04.048Z,88.66
2017-10-19T00:11:30.176Z,88.85
2017-10-19T00:11:56.326Z,88.47
2017-10-19T00:12:22.437Z,88.47
2017-10-19T00:12:48.556Z,88.47
2017-10-19T00:13:14.680Z,89.04
2017-10-19T00:13:40.800Z,88.85
2017-10-19T00:14:06.928Z,89.04
2017-10-19T00:14:33.044Z,88.85
2017-10-19T00:14:59.249Z,88.76
2017-10-19T00:15:25.383Z,89.04
2017-10-19T00:15:51.509Z,88.37
2017-10-19T00:16:17.634Z,88.56
2017-10-19T00:16:43.787Z,88.56
2017-10-19T00:17:09.877Z,88.95
2017-10-19T00:17:36.009Z,89.14
2017-10-19T00:18:02.152Z,89.23
2017-10-19T00:18:28.285Z,89.33
2017-10-19T00:18:54.419Z,88.56
2017-10-19T00:19:20.538Z,89.14
2017-10-19T00:19:46.683Z,89.33
2017-10-19T00:20:12.803Z,89.23
2017-10-19T00:20:38.920Z,88.47
2017-10-19T00:21:05.050Z,88.66
2017-10-19T00:21:31.173Z,88.71
2017-10-19T00:21:57.303Z,88.9
2017-10-19T00:22:23.429Z,89.04
2017-10-19T00:22:49.547Z,88.81
2017-10-19T00:23:15.668Z,88.71
2017-10-19T00:23:41.796Z,88.81
2017-10-19T00:24:07.914Z,89.29
2017-10-19T00:24:34.043Z,89.58
2017-10-19T00:25:00.163Z,89.38
2017-10-19T00:25:26.286Z,89.19
2017-10-19T00:25:52.410Z,89.19
2017-10-19T00:26:18.533Z,88.62
2017-10-19T00:26:44.648Z,89.23
2017-10-19T00:27:10.777Z,88.43
2017-10-19T00:27:36.896Z,88.66
2017-10-19T00:28:03.018Z,88.76
2017-10-19T00:28:29.144Z,89.19
2017-10-19T00:28:55.261Z,88.76
2017-10-19T00:29:21.395Z,89.04
2017-10-19T00:29:47.518Z,88.56
2017-10-19T00:30:13.643Z,88.37
2017-10-19T00:30:39.766Z,89.04
2017-10-19T00:31:05.885Z,88.76
2017-10-19T00:31:32.011Z,88.28
2017-10-19T00:31:58.131Z,88.28
2017-10-19T00:32:24.251Z,88.81
2017-10-19T00:32:50.381Z,88.62
2017-10-19T00:33:16.504Z,88.71
2017-10-19T00:33:42.610Z,89.29
2017-10-19T00:34:08.739Z,89.19
2017-10-19T00:34:34.863Z,89.38
2017-10-19T00:35:00.987Z,88.62
2017-10-19T00:35:27.109Z,88.81
2017-10-19T00:35:53.237Z,89.19
2017-10-19T00:36:19.361Z,89.09
2017-10-19T00:36:45.482Z,88.33
2017-10-19T00:37:11.607Z,88.81
2017-10-19T00:37:37.726Z,88.9
2017-10-19T00:38:03.846Z,88.43
2017-10-19T00:38:29.977Z,88.43
2017-10-19T00:38:56.090Z,88.81
2017-10-19T00:39:22.215Z,88.71
2017-10-19T00:39:48.343Z,89.19
2017-10-19T00:40:14.461Z,89.19
2017-10-19T00:40:40.590Z,88.81
2017-10-19T00:41:06.706Z,88.62
2017-10-19T00:41:32.832Z,88.71
2017-10-19T00:41:58.951Z,88.81
2017-10-19T00:42:25.072Z,88.62
2017-10-19T00:42:51.193Z,88.43
2017-10-19T00:43:17.315Z,89.19
2017-10-19T00:43:43.442Z,89.19
2017-10-19T00:44:09.562Z,88.13
2017-10-19T00:44:35.691Z,88.71
2017-10-19T00:45:01.809Z,88.71
2017-10-19T00:45:27.935Z,89.09
2017-10-19T00:45:54.059Z,88.81
2017-10-19T00:46:20.176Z,88.81
2017-10-19T00:46:46.306Z,88.9
2017-10-19T00:47:12.421Z,88.81
2017-10-19T00:47:38.537Z,88.81
2017-10-19T00:48:04.663Z,88.81
2017-10-19T00:48:30.787Z,89.09
2017-10-19T00:48:56.910Z,88.81
2017-10-19T00:49:23.035Z,89.19
2017-10-19T00:49:49.159Z,88.43
2017-10-19T00:50:15.277Z,88.43
2017-10-19T00:50:41.403Z,88.43
2017-10-19T00:51:07.520Z,88.62
2017-10-19T00:51:33.645Z,88.71
2017-10-19T00:51:59.769Z,88.62
2017-10-19T00:52:25.897Z,88.62
2017-10-19T00:52:52.012Z,88.33
2017-10-19T00:53:18.154Z,89
2017-10-19T00:53:44.280Z,89.09
2017-10-19T00:54:10.403Z,89
2017-10-19T00:54:36.530Z,89.29
2017-10-19T00:55:02.646Z,88.23
2017-10-19T00:55:28.775Z,88.33
2017-10-19T00:55:54.891Z,88.9
2017-10-19T00:56:21.013Z,88.43
2017-10-19T00:56:47.138Z,88.9
2017-10-19T00:57:13.259Z,88.62
2017-10-19T00:57:39.384Z,88.62
2017-10-19T00:58:05.506Z,88.23
2017-10-19T00:58:31.635Z,88.33
2017-10-19T00:58:57.752Z,88.9
2017-10-19T00:59:23.878Z,88.62
2017-10-19T00:59:50.000Z,88.33
2017-10-19T01:00:16.121Z,87.95
2017-10-19T01:00:42.243Z,87.95
2017-10-19T01:01:08.366Z,88.23
2017-10-19T01:01:34.489Z,87.95
2017-10-19T01:02:00.616Z,88.13
2017-10-19T01:02:26.733Z,88.04
2017-10-19T01:02:52.862Z,88.04
2017-10-19T01:03:18.978Z,87.95
2017-10-19T01:03:45.104Z,88.04
2017-10-19T01:04:11.221Z,88.13
2017-10-19T01:04:37.345Z,88.33
2017-10-19T01:05:03.472Z,88.33
2017-10-19T01:05:29.595Z,88.52
2017-10-19T01:05:55.722Z,87.95
2017-10-19T01:06:21.831Z,88.04
2017-10-19T01:06:47.951Z,88.52
2017-10-19T01:07:14.076Z,88.71
2017-10-19T01:07:40.197Z,88.81
2017-10-19T01:08:06.325Z,88.33
2017-10-19T01:08:32.451Z,88.13
2017-10-19T01:08:58.572Z,87.85
2017-10-19T01:09:24.690Z,88.43
2017-10-19T01:09:50.819Z,88.33
2017-10-19T01:10:16.942Z,87.85
2017-10-19T01:10:43.065Z,87.95
2017-10-19T01:11:09.192Z,88.62
2017-10-19T01:11:35.306Z,88.9
2017-10-19T01:12:01.425Z,88.81
2017-10-19T01:12:27.562Z,88.23
2017-10-19T01:12:53.675Z,88.33
2017-10-19T01:13:19.805Z,88.62
2017-10-19T01:13:45.927Z,87.95
2017-10-19T01:14:12.051Z,88.04
2017-10-19T01:14:38.164Z,88.52
2017-10-19T01:15:04.292Z,87.95
2017-10-19T01:15:30.412Z,88.52
2017-10-19T01:15:56.534Z,88.33
2017-10-19T01:16:22.673Z,88.13
2017-10-19T01:16:48.801Z,88.52
2017-10-19T01:17:14.924Z,88.13
2017-10-19T01:17:41.035Z,88.04
2017-10-19T01:18:07.163Z,88.62
2017-10-19T01:18:33.288Z,88.62
2017-10-19T01:18:59.408Z,88.52
2017-10-19T01:19:25.535Z,87.95
2017-10-19T01:19:51.662Z,88.13
2017-10-19T01:20:17.779Z,88.62
2017-10-19T01:20:43.899Z,88.43
2017-10-19T01:21:10.024Z,88.43
2017-10-19T01:21:36.145Z,88.52
2017-10-19T01:22:02.271Z,88.13
2017-10-19T01:22:28.389Z,88.43
2017-10-19T01:22:54.516Z,87.95
2017-10-19T01:23:20.637Z,88.52
2017-10-19T01:23:46.782Z,88.43
2017-10-19T01:24:12.929Z,88.71
2017-10-19T01:24:39.048Z,88.81
2017-10-19T01:25:05.177Z,89.19
2017-10-19T01:25:31.290Z,88.81
2017-10-19T01:25:57.421Z,88.23
2017-10-19T01:26:23.536Z,88.33
2017-10-19T01:26:49.657Z,88.23
2017-10-19T01:27:15.784Z,88.43
2017-10-19T01:27:41.902Z,88.43
2017-10-19T01:28:08.031Z,88.13
2017-10-19T01:28:34.149Z,87.95
2017-10-19T01:29:00.272Z,88.13
2017-10-19T01:29:26.400Z,87.85
2017-10-19T01:29:52.518Z,88.43
2017-10-19T01:30:18.639Z,88.04
2017-10-19T01:30:44.767Z,88.52
2017-10-19T01:31:10.885Z,88.52
2017-10-19T01:31:37.003Z,88.23
2017-10-19T01:32:03.129Z,88.71
2017-10-19T01:32:29.251Z,88.33
2017-10-19T01:32:55.371Z,88.33
2017-10-19T01:33:21.501Z,88.52
2017-10-19T01:33:47.628Z,88.23
2017-10-19T01:34:13.742Z,88.23
2017-10-19T01:34:39.862Z,87.85
2017-10-19T01:35:05.983Z,88.52
2017-10-19T01:35:32.117Z,88.04
2017-10-19T01:35:58.239Z,88.62
2017-10-19T01:36:24.378Z,88.43
2017-10-19T01:36:50.503Z,88.43
2017-10-19T01:37:16.617Z,88.04
2017-10-19T01:37:42.744Z,88.33
2017-10-19T01:38:08.869Z,88.13
2017-10-19T01:38:34.993Z,88.23
2017-10-19T01:39:01.120Z,88.23
2017-10-19T01:39:27.239Z,88.71
2017-10-19T01:39:53.368Z,88.62
2017-10-19T01:40:19.481Z,88.43
2017-10-19T01:40:45.602Z,88.23
2017-10-19T01:41:11.732Z,88.71
2017-10-19T01:41:37.849Z,88.71
2017-10-19T01:42:03.978Z,88.43
2017-10-19T01:42:30.095Z,88.23
2017-10-19T01:42:56.219Z,88.04
2017-10-19T01:43:22.347Z,88.04
2017-10-19T01:43:48.463Z,88.33
2017-10-19T01:44:14.584Z,88.13
2017-10-19T01:44:40.712Z,88.33
2017-10-19T01:45:06.829Z,88.52
2017-10-19T01:45:32.953Z,88.62
2017-10-19T01:45:59.074Z,88.04
2017-10-19T01:46:25.201Z,87.95
2017-10-19T01:46:51.319Z,88.04
2017-10-19T01:47:17.447Z,88.52
2017-10-19T01:47:43.565Z,88.33
2017-10-19T01:48:09.693Z,87.95
2017-10-19T01:48:35.817Z,88.04
2017-10-19T01:49:01.937Z,88.81
2017-10-19T01:49:28.062Z,87.95
2017-10-19T01:49:54.181Z,87.95
2017-10-19T01:50:20.306Z,87.76
2017-10-19T01:50:46.430Z,88.13
2017-10-19T01:51:12.554Z,87.85
2017-10-19T01:51:38.672Z,87.85
2017-10-19T01:52:04.800Z,88.04
2017-10-19T01:52:30.939Z,88.23
2017-10-19T01:52:57.058Z,88.13
2017-10-19T01:53:23.185Z,88.13
2017-10-19T01:53:49.309Z,87.08
2017-10-19T01:54:15.446Z,87.56
2017-10-19T01:54:41.569Z,87.85
2017-10-19T01:55:07.693Z,87.27
2017-10-19T01:55:33.813Z,87.76
2017-10-19T01:55:59.965Z,87.27
2017-10-19T01:56:26.088Z,87.27
2017-10-19T01:56:52.210Z,87.66
2017-10-19T01:57:18.328Z,87.56
2017-10-19T01:57:44.448Z,87.66
2017-10-19T01:58:10.573Z,87.18
2017-10-19T01:58:36.691Z,87.71
2017-10-19T01:59:02.810Z,87.9
2017-10-19T01:59:28.930Z,87.71
2017-10-19T01:59:55.074Z,88
2017-10-19T02:00:21.204Z,87.81
2017-10-19T02:00:47.317Z,88.38
2017-10-19T02:01:13.445Z,88.38
2017-10-19T02:01:39.560Z,88.29
2017-10-19T02:02:05.690Z,88.19
2017-10-19T02:02:31.807Z,88.19
2017-10-19T02:02:57.937Z,88.29
2017-10-19T02:03:24.059Z,88.09
2017-10-19T02:03:50.181Z,88.48
2017-10-19T02:04:16.308Z,88.67
2017-10-19T02:04:42.434Z,88.29
2017-10-19T02:05:08.569Z,88.48
2017-10-19T02:05:34.697Z,88.48
2017-10-19T02:06:00.813Z,88.67
2017-10-19T02:06:26.962Z,88.48
2017-10-19T02:06:53.085Z,88.67
2017-10-19T02:07:19.204Z,89.15
2017-10-19T02:07:45.331Z,88.38
2017-10-19T02:08:11.456Z,88.76
2017-10-19T02:08:37.569Z,88.86
2017-10-19T02:09:03.698Z,88.67
2017-10-19T02:09:29.816Z,88.48
2017-10-19T02:09:55.962Z,88.67
2017-10-19T02:10:22.078Z,88.48
2017-10-19T02:10:48.202Z,88.67
2017-10-19T02:11:14.326Z,88.38
2017-10-19T02:11:40.442Z,89.15
2017-10-19T02:12:06.573Z,89.15
2017-10-19T02:12:32.690Z,89.05
2017-10-19T02:12:58.817Z,88.38
2017-10-19T02:13:24.936Z,88.86
2017-10-19T02:13:51.062Z,88.76
2017-10-19T02:14:17.180Z,88.95
2017-10-19T02:14:43.302Z,88.95
2017-10-19T02:15:09.452Z,88.95
2017-10-19T02:15:35.571Z,88.86
2017-10-19T02:16:01.717Z,88.76
2017-10-19T02:16:27.836Z,88.76
2017-10-19T02:16:53.960Z,88.86
2017-10-19T02:17:20.093Z,89.05
2017-10-19T02:17:46.214Z,89.15
2017-10-19T02:18:12.336Z,88.86
2017-10-19T02:18:38.456Z,88.67
2017-10-19T02:19:04.574Z,89.24
2017-10-19T02:19:30.701Z,88.67
2017-10-19T02:19:56.822Z,88.76
2017-10-19T02:20:22.946Z,88.86
2017-10-19T02:20:49.070Z,88.95
2017-10-19T02:21:15.194Z,88.76
2017-10-19T02:21:41.313Z,88.76
2017-10-19T02:22:07.439Z,88.95
2017-10-19T02:22:33.554Z,88.95
2017-10-19T02:22:59.680Z,88.38
2017-10-19T02:23:25.801Z,89.15
2017-10-19T02:23:51.916Z,88.38
2017-10-19T02:24:18.044Z,88.67
2017-10-19T02:24:44.169Z,88.95
2017-10-19T02:25:10.293Z,88.86
2017-10-19T02:25:36.417Z,88.76
2017-10-19T02:26:02.536Z,88.57
2017-10-19T02:26:28.653Z,88.86
2017-10-19T02:26:54.781Z,88.48
2017-10-19T02:27:20.898Z,88.95
2017-10-19T02:27:47.027Z,88.48
2017-10-19T02:28:13.144Z,89.05
2017-10-19T02:28:39.264Z,89.15
2017-10-19T02:29:05.391Z,88.09
2017-10-19T02:29:31.512Z,88.67
2017-10-19T02:29:57.638Z,88.76
2017-10-19T02:30:23.765Z,88.57
2017-10-19T02:30:49.877Z,88.67
2017-10-19T02:31:15.996Z,88.76
2017-10-19T02:31:42.119Z,88.57
2017-10-19T02:32:08.245Z,88.95
2017-10-19T02:32:34.363Z,88.67
2017-10-19T02:33:00.490Z,88.38
2017-10-19T02:33:26.609Z,88.48
2017-10-19T02:33:52.728Z,88.29
2017-10-19T02:34:18.855Z,87.81
2017-10-19T02:34:44.975Z,88.57
2017-10-19T02:35:11.123Z,88.19
2017-10-19T02:35:37.249Z,88.29
2017-10-19T02:36:03.368Z,88.57
2017-10-19T02:36:29.494Z,87.9
2017-10-19T02:36:55.610Z,87.81
2017-10-19T02:37:21.728Z,88
2017-10-19T02:37:47.855Z,88.29
2017-10-19T02:38:13.984Z,88.48
2017-10-19T02:38:40.104Z,88.09
2017-10-19T02:39:06.219Z,88.48
2017-10-19T02:39:32.342Z,88.19
2017-10-19T02:39:58.460Z,88.67
2017-10-19T02:40:24.589Z,88.76
2017-10-19T02:40:50.703Z,88.57
2017-10-19T02:41:16.836Z,88.09
2017-10-19T02:41:42.958Z,88.48
2017-10-19T02:42:09.078Z,88.09
2017-10-19T02:42:35.198Z,88.38
2017-10-19T02:43:01.321Z,88.19
2017-10-19T02:43:27.458Z,87.9
2017-10-19T02:43:53.588Z,88.09
2017-10-19T02:44:19.703Z,88.38
2017-10-19T02:44:45.825Z,88.76
2017-10-19T02:45:11.949Z,88
2017-10-19T02:45:38.073Z,87.81
2017-10-19T02:46:04.187Z,87.52
2017-10-19T02:46:30.317Z,88.57
2017-10-19T02:46:56.434Z,87.9
2017-10-19T02:47:22.563Z,87.9
2017-10-19T02:47:48.684Z,87.81
2017-10-19T02:48:14.821Z,87.9
2017-10-19T02:48:40.953Z,87.9
2017-10-19T02:49:07.074Z,88.67
2017-10-19T02:49:33.198Z,88.76
2017-10-19T02:49:59.317Z,88
2017-10-19T02:50:25.452Z,87.81
2017-10-19T02:50:51.560Z,87.81
2017-10-19T02:51:17.682Z,88
2017-10-19T02:51:43.832Z,87.81
2017-10-19T02:52:09.953Z,87.9
2017-10-19T02:52:36.071Z,88
2017-10-19T02:53:02.190Z,87.9
2017-10-19T02:53:28.317Z,88
2017-10-19T02:53:54.441Z,87.9
2017-10-19T02:54:20.577Z,87.9
2017-10-19T02:54:46.688Z,87.71
2017-10-19T02:55:12.804Z,87.43
2017-10-19T02:55:38.924Z,87.81
2017-10-19T02:56:05.054Z,87.81
2017-10-19T02:56:31.177Z,88
2017-10-19T02:56:57.296Z,88.67
2017-10-19T02:57:23.440Z,87.81
2017-10-19T02:57:49.587Z,87.62
2017-10-19T02:58:15.705Z,88.57
2017-10-19T02:58:41.824Z,88.76
2017-10-19T02:59:07.943Z,88.09
2017-10-19T02:59:34.068Z,88.48
2017-10-19T03:00:00.188Z,88.38
2017-10-19T03:00:26.317Z,88.29
2017-10-19T03:00:52.441Z,88.09
2017-10-19T03:01:18.557Z,88.57
2017-10-19T03:01:44.686Z,87.9
2017-10-19T03:02:10.802Z,87.95
2017-10-19T03:02:36.933Z,88.19
2017-10-19T03:03:03.056Z,88.38
2017-10-19T03:03:29.172Z,88.05
2017-10-19T03:03:55.293Z,87.95
2017-10-19T03:04:21.421Z,88.62
2017-10-19T03:04:47.539Z,88.62
2017-10-19T03:05:13.661Z,89.2
2017-10-19T03:05:39.784Z,88.91
2017-10-19T03:06:05.904Z,88.53
2017-10-19T03:06:32.034Z,88.91
2017-10-19T03:06:58.161Z,88.91
2017-10-19T03:07:24.278Z,88.91
2017-10-19T03:07:50.398Z,89.29
2017-10-19T03:08:16.521Z,88.81
2017-10-19T03:08:42.670Z,88.81
2017-10-19T03:09:08.802Z,88.81
2017-10-19T03:09:34.928Z,88.62
2017-10-19T03:10:01.049Z,88.72
2017-10-19T03:10:27.176Z,88.72
2017-10-19T03:10:53.300Z,88.72
2017-10-19T03:11:19.422Z,88.62
2017-10-19T03:11:45.539Z,88.91
2017-10-19T03:12:11.666Z,88.91
2017-10-19T03:12:37.788Z,88.72
2017-10-19T03:13:03.906Z,89.2
2017-10-19T03:13:30.031Z,89.01
2017-10-19T03:13:56.157Z,89.2
2017-10-19T03:14:22.284Z,89.48
2017-10-19T03:14:48.395Z,89.39
2017-10-19T03:15:14.525Z,89.48
2017-10-19T03:15:40.642Z,89.29
2017-10-19T03:16:06.765Z,89.39
2017-10-19T03:16:32.886Z,89.58
2017-10-19T03:16:59.008Z,89.48
2017-10-19T03:17:25.158Z,89.29
2017-10-19T03:17:51.276Z,89.87
2017-10-19T03:18:17.397Z,89.87
2017-10-19T03:18:43.524Z,90.06
2017-10-19T03:19:09.645Z,89.87
2017-10-19T03:19:35.768Z,89.58
2017-10-19T03:20:01.887Z,89.77
2017-10-19T03:20:28.016Z,89.77
2017-10-19T03:20:54.132Z,89.48
2017-10-19T03:21:20.260Z,90.2
2017-10-19T03:21:46.384Z,90.16
2017-10-19T03:22:12.502Z,90.3
2017-10-19T03:22:38.622Z,90.25
2017-10-19T03:23:04.749Z,89.92
2017-10-19T03:23:30.872Z,90.3
2017-10-19T03:23:56.989Z,90.3
2017-10-19T03:24:23.110Z,90.49
2017-10-19T03:24:49.243Z,90.3
2017-10-19T03:25:15.359Z,90.11
2017-10-19T03:25:41.477Z,90.88
2017-10-19T03:26:07.604Z,90.88
2017-10-19T03:26:33.727Z,90.88
2017-10-19T03:26:59.865Z,90.88
2017-10-19T03:27:25.988Z,91.35
2017-10-19T03:27:52.110Z,91.35
2017-10-19T03:28:18.237Z,91.16
2017-10-19T03:28:44.361Z,91.35
2017-10-19T03:29:10.479Z,90.88
2017-10-19T03:29:36.599Z,91.64
2017-10-19T03:30:02.733Z,91.54
2017-10-19T03:30:28.844Z,91.74
2017-10-19T03:30:54.970Z,91.35
2017-10-19T03:31:21.095Z,91.16
2017-10-19T03:31:47.211Z,90.49
2017-10-19T03:32:13.337Z,90.78
2017-10-19T03:32:39.457Z,90.88
2017-10-19T03:33:05.600Z,90.97
2017-10-19T03:33:31.727Z,90.49
2017-10-19T03:33:57.851Z,90.49
2017-10-19T03:34:23.965Z,90.3
2017-10-19T03:34:50.096Z,90.44
2017-10-19T03:35:16.218Z,90.3
2017-10-19T03:35:42.342Z,89.96
2017-10-19T03:36:08.464Z,90.06
2017-10-19T03:36:34.585Z,90.16
2017-10-19T03:37:00.708Z,89.58
2017-10-19T03:37:26.829Z,89.58
2017-10-19T03:37:52.950Z,89.1
2017-10-19T03:38:19.073Z,89.77
2017-10-19T03:38:45.209Z,89.29
2017-10-19T03:39:11.339Z,89.2
2017-10-19T03:39:37.453Z,89.29
2017-10-19T03:40:03.573Z,89.2
2017-10-19T03:40:29.703Z,89.2
2017-10-19T03:40:55.826Z,89.87
2017-10-19T03:41:21.952Z,90.06
2017-10-19T03:41:48.071Z,89.67
2017-10-19T03:42:14.197Z,89.96
2017-10-19T03:42:40.317Z,89.44
2017-10-19T03:43:06.434Z,89.87
2017-10-19T03:43:32.555Z,89.2
2017-10-19T03:43:58.673Z,89.29
2017-10-19T03:44:24.803Z,89.01
2017-10-19T03:44:50.925Z,89.39
2017-10-19T03:45:17.050Z,89.39
2017-10-19T03:45:43.167Z,89.29
2017-10-19T03:46:09.294Z,89.58
2017-10-19T03:46:35.412Z,89.29
2017-10-19T03:47:01.530Z,88.91
2017-10-19T03:47:27.655Z,89.1
2017-10-19T03:47:53.779Z,88.53
2017-10-19T03:48:19.896Z,88.81
2017-10-19T03:48:46.019Z,88.81
2017-10-19T03:49:12.145Z,88.91
2017-10-19T03:49:38.268Z,89.01
2017-10-19T03:50:04.413Z,88.91
2017-10-19T03:50:30.529Z,88.81
2017-10-19T03:50:56.654Z,88.72
2017-10-19T03:51:22.781Z,88.91
2017-10-19T03:51:48.903Z,88.91
2017-10-19T03:52:15.043Z,89.01
2017-10-19T03:52:41.171Z,88.24
2017-10-19T03:53:07.288Z,88.24
2017-10-19T03:53:33.416Z,88.53
2017-10-19T03:53:59.531Z,88.53
2017-10-19T03:54:25.679Z,88.91
2017-10-19T03:54:51.806Z,88.43
2017-10-19T03:55:17.925Z,88.62
2017-10-19T03:55:44.043Z,88.53
2017-10-19T03:56:10.171Z,88.24
2017-10-19T03:56:36.290Z,88.43
2017-10-19T03:57:02.407Z,88.15
2017-10-19T03:57:28.525Z,87.95
2017-10-19T03:57:54.648Z,88.15
2017-10-19T03:58:20.795Z,87.95
2017-10-19T03:58:46.920Z,87.76
2017-10-19T03:59:13.045Z,88.15
2017-10-19T03:59:39.161Z,88.53
2017-10-19T04:00:05.292Z,88.53
2017-10-19T04:00:31.409Z,88.53
2017-10-19T04:00:57.540Z,88.43
2017-10-19T04:01:23.664Z,88.72
2017-10-19T04:01:49.786Z,88.81
2017-10-19T04:02:15.903Z,88.34
2017-10-19T04:02:42.029Z,88.81
2017-10-19T04:03:08.165Z,88.62
2017-10-19T04:03:34.287Z,88.43
2017-10-19T04:04:00.414Z,88.15
2017-10-19T04:04:26.535Z,88.43
2017-10-19T04:04:52.650Z,88.81
2017-10-19T04:05:18.771Z,88.72
2017-10-19T04:05:44.903Z,88.72
2017-10-19T04:06:11.017Z,89.2
2017-10-19T04:06:37.146Z,89.1
2017-10-19T04:07:03.273Z,88.62
2017-10-19T04:07:29.394Z,88.15
2017-10-19T04:07:55.510Z,88.62
2017-10-19T04:08:21.639Z,88.43
2017-10-19T04:08:47.758Z,88.62
2017-10-19T04:09:13.878Z,88.72
2017-10-19T04:09:40.012Z,88.72
2017-10-19T04:10:06.124Z,88.05
2017-10-19T04:10:32.281Z,88.81
2017-10-19T04:10:58.369Z,88.24
2017-10-19T04:11:24.490Z,88.15
2017-10-19T04:11:50.612Z,88.62
2017-10-19T04:12:16.732Z,88.24
2017-10-19T04:12:42.856Z,88.15
2017-10-19T04:13:08.981Z,87.95
2017-10-19T04:13:35.106Z,87.76
2017-10-19T04:14:01.222Z,88.34
2017-10-19T04:14:27.351Z,88.34
2017-10-19T04:14:53.468Z,88.53
2017-10-19T04:15:19.592Z,87.86
2017-10-19T04:15:45.720Z,88.15
2017-10-19T04:16:11.837Z,87.95
2017-10-19T04:16:37.957Z,88.34
2017-10-19T04:17:04.082Z,88.24
2017-10-19T04:17:30.207Z,87.95
2017-10-19T04:17:56.329Z,88.34
2017-10-19T04:18:22.453Z,87.95
2017-10-19T04:18:48.570Z,87.86
2017-10-19T04:19:14.695Z,88.34
2017-10-19T04:19:40.822Z,88.53
2017-10-19T04:20:06.940Z,88.43
2017-10-19T04:20:33.064Z,87.76
2017-10-19T04:20:59.180Z,88.62
2017-10-19T04:21:25.299Z,87.76
2017-10-19T04:21:51.421Z,87.95
2017-10-19T04:22:17.544Z,88.15
2017-10-19T04:22:43.664Z,88.43
2017-10-19T04:23:09.792Z,87.76
2017-10-19T04:23:35.910Z,87.86
2017-10-19T04:24:02.037Z,87.86
2017-10-19T04:24:28.160Z,88.62
2017-10-19T04:24:54.275Z,88.15
2017-10-19T04:25:20.405Z,88.34
2017-10-19T04:25:46.530Z,87.86
2017-10-19T04:26:12.681Z,88.34
2017-10-19T04:26:38.794Z,88.72
2017-10-19T04:27:04.913Z,88.72
2017-10-19T04:27:31.042Z,87.95
2017-10-19T04:27:57.164Z,88.05
2017-10-19T04:28:23.285Z,88.05
2017-10-19T04:28:49.400Z,88.15
2017-10-19T04:29:15.527Z,87.57
2017-10-19T04:29:41.659Z,87.66
2017-10-19T04:30:07.770Z,87.76
2017-10-19T04:30:33.892Z,87.86
2017-10-19T04:31:00.018Z,87.95
2017-10-19T04:31:26.141Z,88.05
2017-10-19T04:31:52.260Z,87.95
2017-10-19T04:32:18.381Z,87.95
2017-10-19T04:32:44.508Z,87.57
2017-10-19T04:33:10.633Z,87.86
2017-10-19T04:33:36.755Z,87.95
2017-10-19T04:34:02.873Z,87.76
2017-10-19T04:34:29.001Z,87.76
2017-10-19T04:34:55.123Z,87.76
2017-10-19T04:35:21.250Z,87.95
2017-10-19T04:35:47.361Z,87.57
2017-10-19T04:36:13.488Z,87.86
2017-10-19T04:36:39.611Z,88.05
2017-10-19T04:37:05.733Z,87.95
2017-10-19T04:37:31.850Z,87.86
2017-10-19T04:37:57.974Z,87.95
2017-10-19T04:38:24.092Z,87.86
2017-10-19T04:38:50.218Z,87.86
2017-10-19T04:39:16.341Z,87.95
2017-10-19T04:39:42.464Z,87.86
2017-10-19T04:40:08.590Z,87.76
2017-10-19T04:40:34.701Z,87.95
2017-10-19T04:41:00.826Z,87.57
2017-10-19T04:41:26.949Z,87.76
2017-10-19T04:41:53.069Z,87.86
2017-10-19T04:42:19.192Z,87.48
2017-10-19T04:42:45.310Z,87.95
2017-10-19T04:43:11.433Z,87.95
2017-10-19T04:43:37.569Z,87.76
2017-10-19T04:44:03.693Z,87.95
2017-10-19T04:44:29.814Z,87.76
2017-10-19T04:44:55.947Z,88.15
2017-10-19T04:45:22.075Z,87.19
2017-10-19T04:45:48.190Z,87.95
2017-10-19T04:46:14.307Z,88.05
2017-10-19T04:46:40.431Z,87.29
2017-10-19T04:47:06.555Z,88.05
2017-10-19T04:47:32.681Z,88.15
2017-10-19T04:47:58.801Z,87
2017-10-19T04:48:24.917Z,87.38
2017-10-19T04:48:51.046Z,87.76
2017-10-19T04:49:17.169Z,87.09
2017-10-19T04:49:43.310Z,87.19
2017-10-19T04:50:09.432Z,87.38
2017-10-19T04:50:35.563Z,87.29
2017-10-19T04:51:01.706Z,87.29
2017-10-19T04:51:27.849Z,87.29
2017-10-19T04:51:53.966Z,87.19
2017-10-19T04:52:20.085Z,87.09
2017-10-19T04:52:46.215Z,87.29
2017-10-19T04:53:12.332Z,87.09
2017-10-19T04:53:38.480Z,87.29
2017-10-19T04:54:04.604Z,87.38
2017-10-19T04:54:30.743Z,86.33
2017-10-19T04:54:56.860Z,87.19
2017-10-19T04:55:23.017Z,86.61
2017-10-19T04:55:49.109Z,87.19
2017-10-19T04:56:15.228Z,87.19
2017-10-19T04:56:41.361Z,87.29
2017-10-19T04:57:07.476Z,87.09
2017-10-19T04:57:33.595Z,87.72
2017-10-19T04:57:59.722Z,88.58
2017-10-19T04:58:25.863Z,88.2
2017-10-19T04:58:51.990Z,88.29
2017-10-19T04:59:18.113Z,88.39
2017-10-19T04:59:44.252Z,88.68
2017-10-19T05:00:10.373Z,88.77
2017-10-19T05:00:36.498Z,88.48
2017-10-19T05:01:02.622Z,88.29
2017-10-19T05:01:28.742Z,88.96
2017-10-19T05:01:54.870Z,88.58
2017-10-19T05:02:20.987Z,88.39
2017-10-19T05:02:47.106Z,88.1
2017-10-19T05:03:13.228Z,88.96
2017-10-19T05:03:39.348Z,89.15
2017-10-19T05:04:05.477Z,88.68
2017-10-19T05:04:31.596Z,88.96
2017-10-19T05:04:57.721Z,89.25
2017-10-19T05:05:23.838Z,89.34
2017-10-19T05:05:49.970Z,89.34
2017-10-19T05:06:16.084Z,89.15
2017-10-19T05:06:42.212Z,89.34
2017-10-19T05:07:08.333Z,89.73
2017-10-19T05:07:34.451Z,89.68
2017-10-19T05:08:00.576Z,89.68
2017-10-19T05:08:26.701Z,89.87
2017-10-19T05:08:52.820Z,90.16
2017-10-19T05:09:18.947Z,90.06
2017-10-19T05:09:45.070Z,90.06
2017-10-19T05:10:11.214Z,89.68
2017-10-19T05:10:37.339Z,89.87
2017-10-19T05:11:03.511Z,90.45
2017-10-19T05:11:29.636Z,90.45
2017-10-19T05:11:55.763Z,90.25
2017-10-19T05:12:21.886Z,90.73
2017-10-19T05:12:47.998Z,90.45
2017-10-19T05:13:14.123Z,91.4
2017-10-19T05:13:40.244Z,91.11
2017-10-19T05:14:06.373Z,91.3
2017-10-19T05:14:32.490Z,91.59
2017-10-19T05:14:58.614Z,91.59
2017-10-19T05:15:24.732Z,91.4
2017-10-19T05:15:50.858Z,91.4
2017-10-19T05:16:16.997Z,91.88
2017-10-19T05:16:43.118Z,91.97
2017-10-19T05:17:09.272Z,91.78
2017-10-19T05:17:35.371Z,91.88
2017-10-19T05:18:01.492Z,91.88
2017-10-19T05:18:27.616Z,91.69
2017-10-19T05:18:53.732Z,91.97
2017-10-19T05:19:19.860Z,92.36
2017-10-19T05:19:45.977Z,92.07
2017-10-19T05:20:12.104Z,92.21
2017-10-19T05:20:38.221Z,92.93
2017-10-19T05:21:04.342Z,92.31
2017-10-19T05:21:30.465Z,92.88
2017-10-19T05:21:56.615Z,92.88
2017-10-19T05:22:22.753Z,92.88
2017-10-19T05:22:48.878Z,93.07
2017-10-19T05:23:15.000Z,93.26
2017-10-19T05:23:41.118Z,93.07
2017-10-19T05:24:07.250Z,93.07
2017-10-19T05:24:33.360Z,93.93
2017-10-19T05:24:59.481Z,93.26
2017-10-19T05:25:25.606Z,93.65
2017-10-19T05:25:51.733Z,93.46
2017-10-19T05:26:17.850Z,93.46
2017-10-19T05:26:43.972Z,93.93
2017-10-19T05:27:10.094Z,93.26
2017-10-19T05:27:36.214Z,93.84
2017-10-19T05:28:02.343Z,93.46
2017-10-19T05:28:28.466Z,94.12
2017-10-19T05:28:54.583Z,93.46
2017-10-19T05:29:20.711Z,93.55
2017-10-19T05:29:46.833Z,93.65
2017-10-19T05:30:12.954Z,93.65
2017-10-19T05:30:39.074Z,94.12
2017-10-19T05:31:05.196Z,94.12
2017-10-19T05:31:31.340Z,94.12
2017-10-19T05:31:57.455Z,93.55
2017-10-19T05:32:23.578Z,93.65
2017-10-19T05:32:49.702Z,93.55
2017-10-19T05:33:15.832Z,93.36
2017-10-19T05:33:41.943Z,93.26
2017-10-19T05:34:08.063Z,93.07
2017-10-19T05:34:34.189Z,93.55
2017-10-19T05:35:00.317Z,93.36
2017-10-19T05:35:26.438Z,93.07
2017-10-19T05:35:52.561Z,92.88
2017-10-19T05:36:18.690Z,92.69
2017-10-19T05:36:44.813Z,92.41
2017-10-19T05:37:10.930Z,92.6
2017-10-19T05:37:37.056Z,92.88